Time;durP1;ratioP1;P1;durP2;ratioP2;P2;SDS_P1;SDS_P2;PMS_P1;PMS_P2;Temp;Humidity;BMP_temperature;BMP_pressure;BME280_temperature;BME280_humidity;BME280_pressure;Samples;Min_cycle;Max_cycle;Signal;HPM_P1;HPM_P2
2021/09/22 00:00:58;;;;;;;0.98;0.98;;;21.60;50.00;;;25.56;33.38;102470.09;5114043;28;20476;-12
2021/09/22 00:03:24;;;;;;;1.30;0.85;;;21.60;50.10;;;25.54;33.34;102465.75;5114537;28;20434;-12
2021/09/22 00:05:52;;;;;;;1.17;1.10;;;21.60;50.00;;;25.52;33.38;102472.06;5113987;28;20085;-11
2021/09/22 00:08:18;;;;;;;0.98;0.95;;;21.60;50.10;;;25.55;33.47;102475.53;5114347;28;20042;-12
2021/09/22 00:10:44;;;;;;;0.95;0.95;;;21.60;50.10;;;25.55;33.35;102473.72;5114341;28;20051;-12
2021/09/22 00:13:10;;;;;;;1.20;1.02;;;21.60;50.10;;;25.54;33.55;102473.78;5114042;28;20051;-11
2021/09/22 00:15:36;;;;;;;1.15;1.02;;;21.60;50.10;;;25.55;33.33;102472.84;5114359;28;20395;-12
2021/09/22 00:18:02;;;;;;;0.82;0.82;;;21.60;50.10;;;25.52;33.50;102463.16;5113910;28;20069;-12
2021/09/22 00:20:28;;;;;;;0.80;0.80;;;21.60;50.00;;;25.54;33.45;102471.13;5113688;28;20043;-12
2021/09/22 00:22:58;;;;;;;1.50;1.10;;;21.60;50.00;;;25.52;33.43;102464.00;5114170;28;20158;-12
2021/09/22 00:25:25;;;;;;;1.02;0.93;;;21.60;50.00;;;25.54;33.39;102465.75;5077321;28;20492;-12
2021/09/22 00:27:52;;;;;;;0.80;0.80;;;21.60;50.10;;;25.52;33.43;102455.13;5113752;28;20047;-12
2021/09/22 00:30:18;;;;;;;0.90;0.82;;;21.60;50.10;;;25.52;33.45;102457.81;5113777;28;20047;-11
2021/09/22 00:32:47;;;;;;;1.17;0.98;;;21.60;50.00;;;25.52;33.57;102457.81;5113988;28;20546;-12
2021/09/22 00:35:14;;;;;;;0.90;0.90;;;21.60;50.00;;;25.52;33.34;102460.47;5113630;28;20517;-12
2021/09/22 00:37:40;;;;;;;1.48;1.02;;;21.60;50.00;;;25.52;33.43;102461.34;5113974;28;20545;-12
2021/09/22 00:40:07;;;;;;;0.85;0.85;;;21.60;50.10;;;25.52;33.47;102466.69;5113826;28;20044;-11
2021/09/22 00:42:33;;;;;;;1.08;0.98;;;21.60;50.10;;;25.54;33.35;102463.06;5113377;28;20093;-12
2021/09/22 00:45:06;;;;;;;0.80;0.80;;;21.60;50.10;;;25.49;33.51;102453.50;5093940;28;20535;-12
2021/09/22 00:47:32;;;;;;;1.63;1.20;;;21.60;50.10;;;25.52;33.35;102472.06;5113662;28;20055;-12
2021/09/22 00:50:07;;;;;;;1.35;0.90;;;21.60;50.00;;;25.52;33.51;102466.69;5112134;28;20051;-12
2021/09/22 00:52:33;;;;;;;0.90;0.90;;;21.60;50.10;;;25.52;33.54;102468.53;5095066;28;20052;-12
2021/09/22 00:54:59;;;;;;;0.80;0.80;;;21.60;50.10;;;25.51;33.41;102470.34;5095091;28;20046;-12
2021/09/22 00:57:25;;;;;;;1.70;1.10;;;21.60;50.10;;;25.52;33.48;102469.38;5094928;28;20055;-12
2021/09/22 00:59:51;;;;;;;0.73;0.73;;;21.60;50.00;;;25.49;33.43;102464.22;5110208;28;20040;-12
2021/09/22 01:02:17;;;;;;;0.88;0.88;;;21.60;50.10;;;25.51;33.50;102466.81;5094803;28;20100;-12
2021/09/22 01:04:43;;;;;;;0.80;0.80;;;21.60;50.10;;;25.52;33.41;102463.16;5112556;28;20051;-12
2021/09/22 01:07:14;;;;;;;1.13;1.02;;;21.60;50.20;;;25.52;33.40;102465.84;5113104;28;20047;-11
2021/09/22 01:09:41;;;;;;;1.02;0.93;;;21.60;50.10;;;25.51;33.19;102458.78;5094926;28;20039;-12
2021/09/22 01:12:08;;;;;;;0.90;0.90;;;21.60;50.00;;;25.50;33.54;102462.38;5111726;28;20052;-12
2021/09/22 01:14:34;;;;;;;1.02;0.80;;;21.70;50.00;;;25.52;33.40;102473.88;5113020;28;20100;-11
2021/09/22 01:17:00;;;;;;;1.08;0.95;;;21.60;50.00;;;25.51;33.46;102469.50;5113127;28;20048;-12
2021/09/22 01:19:27;;;;;;;1.15;0.82;;;21.60;50.00;;;25.53;33.43;102467.59;5094897;28;20044;-11
2021/09/22 01:21:56;;;;;;;0.70;0.70;;;21.60;50.00;;;25.49;33.55;102458.84;5094649;28;20176;-12
2021/09/22 01:24:26;;;;;;;0.80;0.80;;;21.60;50.10;;;25.51;33.41;102459.63;5112216;28;20046;-12
2021/09/22 01:26:54;;;;;;;0.90;0.90;;;21.60;50.00;;;25.49;33.63;102455.28;5111570;28;20051;-12
2021/09/22 01:29:20;;;;;;;0.95;0.90;;;21.60;50.10;;;25.52;33.58;102463.16;5111486;28;20071;-11
2021/09/22 01:31:50;;;;;;;0.90;0.90;;;21.60;50.10;;;25.49;33.57;102472.25;5111587;28;20043;-12
2021/09/22 01:34:16;;;;;;;0.75;0.75;;;21.60;50.10;;;25.51;33.51;102474.84;5111522;28;20101;-12
2021/09/22 01:37:03;;;;;;;1.05;0.95;;;21.60;50.00;;;25.48;33.52;102473.19;5108654;28;20116;-12
2021/09/22 01:39:44;;;;;;;0.90;0.90;;;21.60;50.00;;;25.52;33.43;102468.53;5094466;28;20510;-12
2021/09/22 01:42:14;;;;;;;1.10;1.00;;;21.60;50.00;;;25.50;33.35;102463.25;5111482;28;20055;-12
2021/09/22 01:44:40;;;;;;;1.23;0.98;;;21.60;50.00;;;25.52;33.48;102465.84;5111236;28;20048;-12
2021/09/22 01:47:10;;;;;;;0.90;0.90;;;21.60;50.00;;;25.48;33.43;102457.13;5111696;28;20043;-12
2021/09/22 01:50:01;;;;;;;0.85;0.85;;;21.60;50.00;;;25.51;33.56;102464.13;5111735;28;20051;-11
2021/09/22 01:52:32;;;;;;;1.27;1.10;;;21.60;50.00;;;25.51;33.57;102462.31;5111794;28;20048;-12
2021/09/22 01:55:08;;;;;;;1.08;0.98;;;21.60;50.00;;;25.49;33.49;102457.97;5094304;28;20103;-12
2021/09/22 01:57:34;;;;;;;1.00;0.90;;;21.60;50.00;;;25.49;33.49;102461.53;5094503;28;20098;-12
2021/09/22 02:00:00;;;;;;;1.20;0.90;;;21.60;50.00;;;25.50;33.57;102470.44;5093820;28;20056;-11
2021/09/22 02:02:41;;;;;;;1.13;0.88;;;21.60;50.00;;;25.48;33.50;102462.47;5112635;28;20063;-12
2021/09/22 02:05:33;;;;;;;0.90;0.80;;;21.60;50.00;;;25.47;33.52;102460.72;5110183;28;20131;-11
2021/09/22 02:08:13;;;;;;;0.88;0.88;;;21.60;50.00;;;25.49;33.50;102453.50;5094030;28;20056;-12
2021/09/22 02:10:39;;;;;;;0.90;0.80;;;21.60;50.00;;;25.48;33.58;102449.09;5096167;28;20049;-12
2021/09/22 02:13:07;;;;;;;0.50;0.50;;;21.60;50.00;;;25.48;33.44;102446.41;5097576;28;20039;-12
2021/09/22 02:15:36;;;;;;;1.10;1.00;;;21.60;50.00;;;25.48;33.54;102441.06;5097950;28;20126;-12
2021/09/22 02:18:21;;;;;;;0.90;0.90;;;21.60;50.00;;;25.46;33.53;102442.06;5111929;28;20597;-12
2021/09/22 02:20:49;;;;;;;0.95;0.82;;;21.60;50.00;;;25.46;33.43;102439.41;5114385;28;20130;-12
2021/09/22 02:23:20;;;;;;;1.40;0.85;;;21.60;50.00;;;25.48;33.40;102437.50;5115002;28;20422;-12
2021/09/22 02:25:47;;;;;;;0.75;0.75;;;21.60;50.00;;;25.49;33.41;102447.25;5114418;28;20062;-12
2021/09/22 02:28:13;;;;;;;1.00;0.98;;;21.60;50.00;;;25.47;33.40;102446.50;5115993;28;20039;-12
2021/09/22 02:30:43;;;;;;;0.85;0.80;;;21.60;50.00;;;25.46;33.54;102442.06;5114151;28;20593;-12
2021/09/22 02:33:09;;;;;;;0.88;0.88;;;21.60;50.00;;;25.48;33.50;102450.91;5097359;28;20104;-12
2021/09/22 02:35:35;;;;;;;0.88;0.70;;;21.60;50.00;;;25.46;33.45;102451.00;5113822;28;20524;-12
2021/09/22 02:38:18;;;;;;;1.13;1.00;;;21.60;50.10;;;25.45;33.62;102437.69;5114857;28;20055;-12
2021/09/22 02:40:46;;;;;;;1.33;1.05;;;21.50;50.10;;;25.47;33.38;102451.84;5114707;28;20040;-12
2021/09/22 02:43:12;;;;;;;1.70;1.20;;;21.50;50.10;;;25.48;33.61;102448.22;5115426;28;20044;-12
2021/09/22 02:45:38;;;;;;;0.93;0.88;;;21.50;50.10;;;25.44;33.51;102443.97;5114582;28;20050;-12
2021/09/22 02:48:04;;;;;;;0.75;0.75;;;21.50;50.10;;;25.46;33.61;102444.75;5113795;28;20047;-13
2021/09/22 02:50:32;;;;;;;1.00;0.80;;;21.60;50.10;;;25.44;33.44;102444.88;5079749;28;20044;-12
2021/09/22 02:52:58;;;;;;;1.30;0.93;;;21.60;50.10;;;25.47;33.46;102443.81;5114602;28;20047;-12
2021/09/22 02:55:24;;;;;;;1.75;0.80;;;21.60;50.10;;;25.46;33.58;102448.31;5114223;28;20089;-12
2021/09/22 02:57:51;;;;;;;0.98;0.80;;;21.60;50.10;;;25.45;33.56;102438.53;5113772;28;20047;-11
2021/09/22 03:00:17;;;;;;;0.90;0.70;;;21.60;50.10;;;25.46;33.49;102440.28;5112650;28;20105;-12
2021/09/22 03:02:43;;;;;;;0.85;0.85;;;21.60;50.10;;;25.46;33.62;102434.03;5112256;28;20110;-12
2021/09/22 03:05:10;;;;;;;0.95;0.77;;;21.60;50.00;;;25.46;33.47;102434.94;5114286;28;20472;-11
2021/09/22 03:07:35;;;;;;;1.27;0.80;;;21.60;50.00;;;25.45;33.45;102430.50;5115051;28;20110;-12
2021/09/22 03:10:02;;;;;;;1.17;1.08;;;21.50;50.10;;;25.48;33.63;102438.38;5115029;28;20484;-12
2021/09/22 03:12:31;;;;;;;0.80;0.80;;;21.50;50.20;;;25.47;33.62;102442.00;5096634;28;20047;-12
2021/09/22 03:14:57;;;;;;;1.00;0.90;;;21.50;50.40;;;25.43;33.57;102437.78;5114867;28;20146;-12
2021/09/22 03:17:26;;;;;;;1.10;1.00;;;21.40;50.50;;;25.45;33.52;102435.88;5096538;28;20043;-11
2021/09/22 03:19:52;;;;;;;0.70;0.70;;;21.40;50.50;;;25.47;33.73;102443.81;5113516;28;20059;-11
2021/09/22 03:22:18;;;;;;;0.80;0.80;;;21.40;50.50;;;25.46;33.60;102437.59;5095599;28;20088;-12
2021/09/22 03:25:10;;;;;;;0.60;0.60;;;21.50;50.40;;;25.49;33.45;102439.22;5096244;28;20146;-12
2021/09/22 03:27:37;;;;;;;0.90;0.90;;;21.50;50.30;;;25.50;33.42;102439.13;5114610;28;20122;-12
2021/09/22 03:30:06;;;;;;;1.00;0.93;;;21.50;50.40;;;25.51;33.57;102440.88;5096618;28;20051;-11
2021/09/22 03:32:33;;;;;;;0.80;0.75;;;21.50;50.40;;;25.55;33.52;102432.69;5096984;28;20372;-12
2021/09/22 03:34:59;;;;;;;1.42;0.88;;;21.50;50.50;;;25.54;33.48;102434.47;5113279;28;20048;-12
2021/09/22 03:37:25;;;;;;;1.17;1.00;;;21.50;50.50;;;25.55;33.49;102432.69;5096616;28;20498;-11
2021/09/22 03:39:51;;;;;;;1.05;0.93;;;21.40;50.40;;;25.55;33.50;102438.03;5112726;28;20393;-11
2021/09/22 03:42:17;;;;;;;0.90;0.90;;;21.50;50.50;;;25.55;33.49;102425.50;5113510;28;20100;-12
2021/09/22 03:44:43;;;;;;;0.85;0.80;;;21.50;50.40;;;25.56;33.53;102424.56;5114465;28;20039;-12
2021/09/22 03:47:09;;;;;;;1.17;1.08;;;21.50;50.30;;;25.58;33.60;102422.66;5114927;28;20048;-11
2021/09/22 03:49:35;;;;;;;1.10;0.90;;;21.50;50.30;;;25.57;33.43;102420.06;5094774;28;20408;-11
2021/09/22 03:52:12;;;;;;;0.80;0.80;;;21.50;50.30;;;25.59;33.57;102434.22;5112920;28;20044;-12
2021/09/22 03:54:38;;;;;;;0.98;0.90;;;21.60;50.30;;;25.59;33.40;102431.53;5114180;28;20052;-12
2021/09/22 03:57:04;;;;;;;1.00;0.85;;;21.60;50.20;;;25.62;33.49;102439.41;5113214;28;20073;-12
2021/09/22 03:59:29;;;;;;;0.80;0.80;;;21.60;50.00;;;25.62;33.39;102442.09;5113403;28;20040;-12
2021/09/22 04:01:55;;;;;;;1.33;0.93;;;21.70;49.70;;;25.62;33.44;102440.25;5095665;28;20048;-11
2021/09/22 04:04:21;;;;;;;0.85;0.85;;;21.80;49.60;;;25.63;33.37;102450.03;5112892;28;20036;-12
2021/09/22 04:06:47;;;;;;;0.82;0.82;;;21.80;49.50;;;25.64;33.46;102462.50;5096067;28;20051;-12
2021/09/22 04:09:14;;;;;;;1.00;0.90;;;21.90;49.40;;;25.64;33.28;102456.25;5112064;28;20055;-12
2021/09/22 04:11:40;;;;;;;0.82;0.82;;;21.90;49.40;;;25.66;33.35;102457.00;5095941;28;20044;-12
2021/09/22 04:14:07;;;;;;;0.80;0.80;;;21.90;49.40;;;25.65;33.36;102455.31;5112692;28;20055;-12
2021/09/22 04:16:33;;;;;;;0.70;0.70;;;21.90;49.60;;;25.66;33.30;102446.28;5113006;28;20039;-11
2021/09/22 04:18:59;;;;;;;0.90;0.90;;;21.80;49.70;;;25.66;33.37;102446.28;5094966;28;20051;-12
2021/09/22 04:21:26;;;;;;;1.35;1.10;;;21.80;49.70;;;25.64;33.30;102433.03;5095017;28;20113;-12
2021/09/22 04:23:52;;;;;;;0.93;0.88;;;21.80;49.70;;;25.65;33.24;102425.84;5094271;28;20113;-12
2021/09/22 04:26:18;;;;;;;0.70;0.70;;;21.70;49.80;;;25.68;33.25;102436.38;5112861;28;20460;-12
2021/09/22 04:28:49;;;;;;;1.70;0.90;;;21.70;49.90;;;25.66;33.13;102422.19;5112427;28;20075;-12
2021/09/22 04:31:34;;;;;;;2.63;1.13;;;21.60;50.00;;;25.64;33.33;102416.94;5113866;28;20058;-12
2021/09/22 04:34:19;;;;;;;0.80;0.80;;;21.60;50.10;;;25.64;33.21;102424.09;5098616;28;20110;-12
2021/09/22 04:37:03;;;;;;;0.95;0.85;;;21.50;50.20;;;25.61;33.29;102427.84;5113676;28;20181;-12
2021/09/22 04:39:48;;;;;;;1.63;1.08;;;21.50;50.30;;;25.62;33.39;102431.38;5113434;28;20086;-11
2021/09/22 04:42:37;;;;;;;1.08;0.93;;;21.50;50.20;;;25.61;33.46;102435.88;5084342;28;20040;-12
2021/09/22 04:45:22;;;;;;;1.08;0.88;;;21.60;50.20;;;25.60;33.30;102434.13;5113506;28;20465;-12
2021/09/22 04:48:07;;;;;;;1.02;0.90;;;21.60;50.10;;;25.61;33.35;102434.97;5113503;28;20124;-12
2021/09/22 04:50:51;;;;;;;0.80;0.80;;;21.70;50.00;;;25.60;33.24;102428.78;5097497;28;20506;-12
2021/09/22 04:53:36;;;;;;;0.90;0.73;;;21.70;49.90;;;25.61;33.30;102434.97;5113498;28;20102;-12
2021/09/22 04:56:20;;;;;;;0.85;0.80;;;21.70;49.80;;;25.61;33.42;102440.34;5113270;28;20109;-12
2021/09/22 04:59:06;;;;;;;1.33;1.10;;;21.70;49.70;;;25.58;33.44;102430.69;5113273;28;20087;-12
2021/09/22 05:01:50;;;;;;;0.95;0.85;;;21.70;49.70;;;25.59;33.38;102424.34;5097989;28;20058;-12
2021/09/22 05:04:35;;;;;;;1.60;1.05;;;21.70;49.80;;;25.56;33.32;102427.25;5113599;28;20427;-11
2021/09/22 05:07:19;;;;;;;0.82;0.82;;;21.70;49.90;;;25.59;33.51;102434.22;5113248;28;20063;-12
2021/09/22 05:10:05;;;;;;;0.80;0.80;;;21.60;49.90;;;25.56;33.33;102435.28;5113153;28;20506;-11
2021/09/22 05:12:49;;;;;;;0.70;0.70;;;21.60;49.90;;;25.57;33.37;102445.00;5097789;28;20407;-12
2021/09/22 05:15:34;;;;;;;1.15;0.98;;;21.60;50.00;;;25.56;33.44;102458.50;5113035;28;20066;-12
2021/09/22 05:18:19;;;;;;;1.48;1.00;;;21.60;50.00;;;25.56;33.63;102462.06;5111343;28;20090;-12
2021/09/22 05:21:03;;;;;;;1.02;0.90;;;21.60;50.00;;;25.54;33.43;102452.38;5097654;28;20054;-12
2021/09/22 05:23:48;;;;;;;0.90;0.80;;;21.60;50.10;;;25.54;33.70;102452.38;5113239;28;20556;-11
2021/09/22 05:26:33;;;;;;;0.80;0.80;;;21.60;50.10;;;25.54;33.48;102453.22;5113339;28;20455;-12
2021/09/22 05:29:22;;;;;;;1.17;0.88;;;21.70;50.00;;;25.57;33.43;102449.53;5102001;28;20423;-12
2021/09/22 05:32:07;;;;;;;1.05;0.88;;;21.70;49.80;;;25.57;33.45;102452.19;5112974;28;20532;-12
2021/09/22 05:34:51;;;;;;;0.80;0.65;;;21.70;49.70;;;25.54;33.35;102455.91;5113101;28;20063;-12
2021/09/22 05:37:35;;;;;;;1.15;0.90;;;21.70;49.80;;;25.56;33.31;102455.81;5113156;28;20054;-11
2021/09/22 05:40:24;;;;;;;1.52;0.98;;;21.70;49.90;;;25.56;33.33;102453.13;5070529;28;20050;-12
2021/09/22 05:43:08;;;;;;;0.80;0.80;;;21.70;49.90;;;25.55;33.31;102449.59;5113061;28;20078;-12
2021/09/22 05:45:53;;;;;;;0.70;0.70;;;21.60;49.90;;;25.57;33.34;102460.22;5115389;28;20090;-12
2021/09/22 05:48:37;;;;;;;1.13;1.00;;;21.60;50.00;;;25.55;33.38;102451.44;5115984;28;20478;-12
2021/09/22 05:51:22;;;;;;;1.80;1.15;;;21.60;50.10;;;25.52;33.55;102449.78;5116180;28;20055;-12
2021/09/22 05:54:08;;;;;;;1.30;1.20;;;21.60;50.10;;;25.53;33.50;102456.88;5116310;28;20054;-11
2021/09/22 05:56:52;;;;;;;1.20;1.10;;;21.50;50.10;;;25.54;33.54;102466.59;5116120;28;20063;-12
2021/09/22 05:59:37;;;;;;;0.88;0.88;;;21.50;50.20;;;25.55;33.48;102462.13;5116292;28;20050;-12
2021/09/22 06:02:21;;;;;;;0.80;0.70;;;21.60;50.20;;;25.54;33.42;102466.59;5116701;28;20200;-12
2021/09/22 06:05:06;;;;;;;0.90;0.77;;;21.60;50.20;;;25.55;33.40;102470.19;5116348;28;20046;-12
2021/09/22 06:07:51;;;;;;;1.08;1.00;;;21.60;50.10;;;25.56;33.36;102467.41;5116237;28;20406;-12
2021/09/22 06:10:37;;;;;;;0.98;0.90;;;21.60;50.20;;;25.60;33.43;102473.47;5115751;28;20051;-12
2021/09/22 06:13:18;;;;;;;1.15;0.90;;;21.60;50.00;;;25.57;33.43;102470.94;5093597;28;20047;-12
2021/09/22 06:15:46;;;;;;;1.10;1.00;;;21.60;50.20;;;25.59;33.43;102472.56;5114312;28;20130;-12
2021/09/22 06:18:12;;;;;;;0.90;0.80;;;21.60;50.10;;;25.60;33.33;102477.00;5096699;28;20429;-12
2021/09/22 06:20:38;;;;;;;1.20;0.90;;;21.60;50.10;;;25.61;33.38;102480.53;5116261;28;20055;-12
2021/09/22 06:23:04;;;;;;;1.00;0.88;;;21.60;50.20;;;25.62;33.39;102479.59;5098062;28;20054;-12
2021/09/22 06:25:32;;;;;;;1.15;0.85;;;21.60;50.20;;;25.62;33.37;102491.16;5114230;28;20051;-12
2021/09/22 06:27:59;;;;;;;0.85;0.80;;;21.60;50.20;;;25.62;33.35;102474.22;5097211;28;20052;-12
2021/09/22 06:30:26;;;;;;;1.35;0.85;;;21.60;50.10;;;25.63;33.28;102467.94;5115535;28;20059;-12
2021/09/22 06:32:53;;;;;;;0.82;0.77;;;21.60;50.10;;;25.67;33.35;102472.16;5097600;28;20134;-12
2021/09/22 06:35:38;;;;;;;1.33;0.88;;;21.60;50.00;;;25.70;33.41;102471.97;5114862;28;20036;-12
2021/09/22 06:38:09;;;;;;;0.60;0.60;;;21.70;50.00;;;25.68;33.38;102468.53;5097506;28;20078;-13
2021/09/22 06:40:39;;;;;;;0.90;0.80;;;21.70;49.90;;;25.74;33.24;102478.88;5114238;28;20042;-12
2021/09/22 06:43:06;;;;;;;0.70;0.70;;;21.70;49.80;;;25.72;33.31;102478.09;5114468;28;20039;-12
2021/09/22 06:45:33;;;;;;;0.90;0.80;;;21.70;49.80;;;25.76;33.21;102473.44;5115351;28;20472;-12
2021/09/22 06:47:58;;;;;;;0.90;0.85;;;21.80;49.60;;;25.81;33.25;102472.25;5115735;28;20048;-13
2021/09/22 06:50:25;;;;;;;0.77;0.73;;;21.90;49.50;;;25.85;33.29;102475.59;5115661;28;20400;-12
2021/09/22 06:52:51;;;;;;;1.35;0.75;;;21.90;49.40;;;25.90;33.24;102473.50;5115200;28;20139;-12
2021/09/22 06:55:17;;;;;;;1.00;0.88;;;22.10;49.10;;;25.95;32.99;102468.78;5096744;28;20169;-12
2021/09/22 06:57:44;;;;;;;1.30;1.10;;;22.20;48.80;;;25.98;33.02;102470.44;5095627;28;20062;-12
2021/09/22 07:00:13;;;;;;;0.80;0.80;;;22.30;48.70;;;25.99;32.88;102459.59;5115214;28;20074;-12
2021/09/22 07:02:39;;;;;;;0.90;0.80;;;22.30;48.60;;;26.07;32.93;102476.09;5115108;28;20067;-13
2021/09/22 07:05:07;;;;;;;0.80;0.80;;;22.30;48.50;;;26.08;32.92;102468.94;5114964;28;20052;-11
2021/09/22 07:07:33;;;;;;;0.90;0.80;;;22.40;48.40;;;26.14;32.84;102478.44;5096626;28;20479;-12
2021/09/22 07:09:59;;;;;;;1.25;0.85;;;22.40;48.20;;;26.16;32.84;102469.34;5115423;28;20471;-11
2021/09/22 07:12:25;;;;;;;0.93;0.70;;;22.50;48.00;;;26.21;32.82;102469.06;5115005;28;20072;-11
2021/09/22 07:14:51;;;;;;;0.75;0.75;;;22.60;47.90;;;26.27;32.67;102465.16;5114885;28;20043;-12
2021/09/22 07:17:18;;;;;;;1.23;0.93;;;22.60;47.80;;;26.30;32.66;102467.69;5114910;28;20372;-12
2021/09/22 07:19:45;;;;;;;1.17;0.80;;;22.70;47.70;;;26.31;32.71;102458.66;5114815;28;20047;-12
2021/09/22 07:22:11;;;;;;;1.02;0.95;;;22.70;47.70;;;26.39;32.74;102477.84;5114704;28;20056;-12
2021/09/22 07:24:37;;;;;;;0.85;0.80;;;22.70;47.60;;;26.39;32.46;102470.66;5114710;28;20048;-12
2021/09/22 07:27:02;;;;;;;1.02;0.90;;;22.70;47.70;;;26.40;32.48;102467.03;5112649;28;20052;-12
2021/09/22 07:29:28;;;;;;;1.33;1.00;;;22.70;47.80;;;26.43;32.40;102463.31;5114691;28;20047;-12
2021/09/22 07:31:56;;;;;;;0.70;0.70;;;22.60;47.90;;;26.43;32.52;102466.84;5115169;28;20078;-11
2021/09/22 07:34:24;;;;;;;0.70;0.70;;;22.60;47.90;;;26.46;32.41;102467.59;5114641;28;20051;-12
2021/09/22 07:36:50;;;;;;;1.33;1.10;;;22.60;47.90;;;26.49;32.34;102472.78;5114194;28;20077;-12
2021/09/22 07:39:17;;;;;;;0.80;0.80;;;22.60;47.90;;;26.48;32.25;102465.69;5114588;28;20071;-12
2021/09/22 07:41:42;;;;;;;0.90;0.77;;;22.60;47.90;;;26.47;32.11;102469.34;5114551;28;20065;-12
2021/09/22 07:44:08;;;;;;;1.00;0.80;;;22.60;48.00;;;26.50;32.24;102472.69;5095992;28;20055;-11
2021/09/22 07:46:36;;;;;;;1.58;0.90;;;22.60;47.90;;;26.47;32.25;102467.50;5114299;28;20039;-12
2021/09/22 07:49:02;;;;;;;1.05;0.95;;;22.60;47.90;;;26.52;32.32;102467.25;5114428;28;20047;-12
2021/09/22 07:51:28;;;;;;;1.50;0.80;;;22.60;47.90;;;26.52;32.28;102465.41;5095810;28;20097;-12
2021/09/22 07:53:54;;;;;;;1.17;0.80;;;22.60;47.90;;;26.53;32.36;102469.84;5113967;28;20403;-12
2021/09/22 07:56:20;;;;;;;0.65;0.65;;;22.60;47.90;;;26.54;32.31;102468.84;5113795;28;20055;-12
2021/09/22 07:58:46;;;;;;;1.17;0.90;;;22.60;48.00;;;26.55;32.31;102475.97;5113886;28;20051;-12
2021/09/22 08:01:13;;;;;;;0.77;0.75;;;22.60;48.00;;;26.55;32.18;102462.56;5113870;28;20048;-11
2021/09/22 08:03:39;;;;;;;2.67;0.80;;;22.60;47.90;;;26.57;32.24;102467.81;5114230;28;20044;-12
2021/09/22 08:06:07;;;;;;;1.48;0.95;;;22.70;47.70;;;26.58;32.42;102464.16;5114129;28;20047;-11
2021/09/22 08:08:33;;;;;;;1.02;1.00;;;22.70;48.20;;;26.58;32.22;102458.81;5113663;28;20046;-11
2021/09/22 08:10:59;;;;;;;1.02;0.90;;;22.70;47.70;;;26.58;32.16;102461.47;5095710;28;20053;-11
2021/09/22 08:13:25;;;;;;;1.27;1.00;;;22.70;47.70;;;26.60;31.94;102467.63;5113962;28;20424;-11
2021/09/22 08:15:50;;;;;;;1.02;0.93;;;22.70;47.70;;;26.58;32.15;102458.81;5113886;28;20080;-11
2021/09/22 08:18:16;;;;;;;0.80;0.80;;;22.60;47.90;;;26.61;31.92;102469.34;5113747;28;20051;-12
2021/09/22 08:20:42;;;;;;;0.95;0.85;;;22.60;47.90;;;26.60;32.12;102462.28;5114214;28;20446;-11
2021/09/22 08:23:08;;;;;;;1.73;1.10;;;22.60;47.90;;;26.59;32.12;102460.53;5113850;28;20101;-12
2021/09/22 08:25:34;;;;;;;1.58;1.00;;;22.60;47.90;;;26.59;31.94;102458.72;5114332;28;20044;-12
2021/09/22 08:28:00;;;;;;;1.45;0.90;;;22.60;47.90;;;26.57;32.05;102457.09;5114114;28;20076;-12
2021/09/22 08:30:27;;;;;;;1.35;0.90;;;22.60;47.90;;;26.57;32.04;102460.63;5114072;28;20094;-12
2021/09/22 08:32:52;;;;;;;0.82;0.82;;;22.60;47.90;;;26.55;32.06;102459.88;5113561;28;20043;-11
2021/09/22 08:35:19;;;;;;;1.17;1.08;;;22.60;47.90;;;26.56;32.14;102458.03;5113519;28;20116;-12
2021/09/22 08:37:45;;;;;;;1.20;0.90;;;22.60;47.90;;;26.55;32.02;102459.88;5095813;28;20047;-12
2021/09/22 08:40:12;;;;;;;1.00;0.90;;;22.60;47.90;;;26.54;32.11;102460.81;5113846;28;20047;-12
2021/09/22 08:42:39;;;;;;;1.00;1.00;;;22.60;47.90;;;26.52;32.06;102460.03;5113495;28;20126;-12
2021/09/22 08:45:07;;;;;;;1.05;0.80;;;22.60;47.90;;;26.52;32.09;102457.38;5113535;28;20077;-11
2021/09/22 08:47:33;;;;;;;0.80;0.70;;;22.60;47.90;;;26.48;32.08;102447.78;5113502;28;20074;-11
2021/09/22 08:49:59;;;;;;;1.20;0.90;;;22.60;47.90;;;26.51;32.24;102449.41;5113963;28;20047;-12
2021/09/22 08:52:25;;;;;;;0.80;0.80;;;22.60;47.90;;;26.49;32.21;102448.66;5113381;28;20482;-11
2021/09/22 08:54:51;;;;;;;0.80;0.80;;;22.60;47.90;;;26.46;32.24;102448.81;5113514;28;20040;-12
2021/09/22 08:57:17;;;;;;;0.80;0.80;;;22.60;47.90;;;26.49;32.24;102456.69;5095198;28;20054;-12
2021/09/22 08:59:43;;;;;;;1.00;0.90;;;22.60;47.90;;;26.48;32.10;102457.63;5113069;28;20039;-12
2021/09/22 09:02:13;;;;;;;1.20;0.95;;;22.60;47.90;;;26.44;32.28;102452.44;5113284;28;20153;-12
2021/09/22 09:04:42;;;;;;;1.02;0.80;;;22.60;47.90;;;26.48;32.23;102460.31;5113244;28;20063;-12
2021/09/22 09:07:09;;;;;;;1.35;1.15;;;22.60;48.10;;;26.44;32.13;102454.28;5113443;28;20565;-12
2021/09/22 09:09:44;;;;;;;1.55;0.98;;;22.60;48.10;;;26.44;32.24;102456.97;5113502;28;20130;-12
2021/09/22 09:12:21;;;;;;;1.38;1.05;;;22.50;48.00;;;26.43;32.12;102449.91;5078358;28;20457;-12
2021/09/22 09:14:56;;;;;;;1.25;1.00;;;22.50;48.10;;;26.43;32.26;102450.75;5113442;28;20043;-12
2021/09/22 09:17:39;;;;;;;1.30;1.20;;;22.50;48.20;;;26.38;32.20;102447.47;5113155;28;20052;-11
2021/09/22 09:20:16;;;;;;;1.55;1.00;;;22.50;48.30;;;26.41;32.46;102451.78;5112214;28;20047;-12
2021/09/22 09:23:00;;;;;;;1.98;0.90;;;22.40;48.30;;;26.41;32.33;102451.78;5113000;28;20047;-12
2021/09/22 09:25:28;;;;;;;1.05;0.90;;;22.40;48.30;;;26.37;32.31;102437.69;5112866;28;20100;-12
2021/09/22 09:27:55;;;;;;;0.90;0.90;;;22.50;48.40;;;26.39;32.19;102443.81;5112992;28;20134;-12
2021/09/22 09:30:25;;;;;;;1.20;1.00;;;22.40;48.30;;;26.39;32.32;102440.28;5112952;28;20450;-11
2021/09/22 09:32:51;;;;;;;1.23;1.00;;;22.40;48.30;;;26.38;32.31;102439.44;5112842;28;20048;-11
2021/09/22 09:35:21;;;;;;;1.25;0.80;;;22.50;48.40;;;26.35;32.15;102430.72;5094740;28;20075;-11
2021/09/22 09:37:50;;;;;;;0.82;0.60;;;22.40;48.40;;;26.36;32.14;102438.69;5112390;28;20082;-12
2021/09/22 09:40:32;;;;;;;1.05;0.80;;;22.40;48.40;;;26.36;32.46;102444.03;5112605;28;20578;-11
2021/09/22 09:43:08;;;;;;;1.33;1.08;;;22.40;48.50;;;26.35;32.27;102449.50;5112661;28;20059;-11
2021/09/22 09:45:39;;;;;;;1.10;1.00;;;22.40;48.40;;;26.35;32.40;102441.44;5112973;28;20134;-11
2021/09/22 09:48:17;;;;;;;0.77;0.73;;;22.40;48.40;;;26.35;32.23;102446.81;5112779;28;20130;-11
2021/09/22 09:50:53;;;;;;;2.25;1.10;;;22.40;48.40;;;26.34;32.40;102445.91;5112904;28;20450;-12
2021/09/22 09:53:28;;;;;;;1.70;1.23;;;22.50;48.40;;;26.37;32.42;102447.56;5112627;28;20039;-12
2021/09/22 09:55:56;;;;;;;1.25;0.90;;;22.50;48.30;;;26.39;32.38;102451.88;5112497;28;20090;-12
2021/09/22 09:58:39;;;;;;;2.42;0.93;;;22.50;48.30;;;26.39;32.41;102457.22;5112436;28;20047;-12
2021/09/22 10:01:04;;;;;;;2.20;0.98;;;22.50;48.30;;;26.41;32.42;102452.66;5112781;28;20082;-12
2021/09/22 10:03:30;;;;;;;1.20;0.90;;;22.50;48.30;;;26.41;32.19;102451.78;5112474;28;20051;-11
2021/09/22 10:05:58;;;;;;;0.90;0.90;;;22.50;48.30;;;26.41;32.39;102454.47;5094129;28;20040;-12
2021/09/22 10:08:26;;;;;;;1.10;0.77;;;22.50;48.20;;;26.42;32.34;102457.06;5094406;28;20139;-12
2021/09/22 10:10:54;;;;;;;1.67;0.93;;;22.50;48.10;;;26.40;32.38;102448.25;5112185;28;20044;-12
2021/09/22 10:13:20;;;;;;;1.98;1.10;;;22.50;48.10;;;26.40;32.40;102431.31;5112348;28;20088;-12
2021/09/22 10:15:48;;;;;;;1.55;0.88;;;22.60;48.60;;;26.43;32.14;102449.91;5112618;28;20047;-12
2021/09/22 10:18:17;;;;;;;1.20;0.98;;;22.60;48.10;;;26.41;32.26;102436.56;5112297;28;20040;-12
2021/09/22 10:20:46;;;;;;;0.90;0.90;;;22.60;48.00;;;26.45;32.22;102439.94;5112096;28;20168;-12
2021/09/22 10:23:13;;;;;;;1.00;0.90;;;22.60;47.90;;;26.47;32.27;102439.84;5112392;28;20047;-12
2021/09/22 10:25:41;;;;;;;1.35;0.93;;;22.60;47.90;;;26.45;32.22;102447.97;5093890;28;20055;-12
2021/09/22 10:28:08;;;;;;;1.33;0.98;;;22.60;48.00;;;26.44;32.39;102441.72;5093757;28;20093;-11